Time;durP1;ratioP1;P1;durP2;ratioP2;P2;SDS_P1;SDS_P2;PMS_P1;PMS_P2;Temp;Humidity;BMP_temperature;BMP_pressure;BME280_temperature;BME280_humidity;BME280_pressure;Samples;Min_cycle;Max_cycle;Signal;HPM_P1;HPM_P2
2023/05/06 00:00:17;;;;;;;;;;;;;;;22.42;52.41;99380.00;7316041;19;129974;-34
2023/05/06 00:02:42;;;;;;;;;;;;;;;22.45;52.67;99369.22;7314686;19;129237;-40
2023/05/06 00:05:07;;;;;;;;;;;;;;;22.46;52.63;99365.63;7315936;19;129019;-40
2023/05/06 00:07:33;;;;;;;;;;;;;;;22.45;52.78;99345.63;7316415;19;129109;-32
2023/05/06 00:09:58;;;;;;;;;;;;;;;22.50;52.47;99353.84;7314109;19;129288;-43
2023/05/06 00:12:23;;;;;;;;;;;;;;;22.47;52.79;99356.78;7315565;19;130139;-40
2023/05/06 00:14:48;;;;;;;;;;;;;;;22.48;52.89;99356.63;7317416;19;129334;-35
2023/05/06 00:17:14;;;;;;;;;;;;;;;22.21;50.80;99350.66;7316527;19;128989;-38
2023/05/06 00:19:39;;;;;;;;;;;;;;;21.64;49.35;99362.28;7316792;19;129712;-40
2023/05/06 00:22:04;;;;;;;;;;;;;;;21.63;49.24;99366.72;7317323;19;129827;-41
2023/05/06 00:24:29;;;;;;;;;;;;;;;22.04;52.73;99364.56;7314575;19;129036;-42
2023/05/06 00:26:55;;;;;;;;;;;;;;;22.08;53.02;99339.75;7317984;19;129296;-41
2023/05/06 00:29:20;;;;;;;;;;;;;;;22.26;52.80;99351.03;7317869;19;130978;-39
2023/05/06 00:31:46;;;;;;;;;;;;;;;22.29;52.63;99353.34;7316158;19;129629;-39
2023/05/06 00:34:11;;;;;;;;;;;;;;;22.36;52.49;99351.78;7318183;19;128782;-42
2023/05/06 00:36:36;;;;;;;;;;;;;;;22.37;52.46;99345.56;7318674;19;129123;-42
2023/05/06 00:39:02;;;;;;;;;;;;;;;22.41;52.45;99344.31;7317221;19;129954;-42
2023/05/06 00:41:31;;;;;;;;;;;;;;;22.43;52.98;99350.22;7316897;19;129176;-40
2023/05/06 00:43:56;;;;;;;;;;;;;;;22.43;52.27;99324.81;7317967;19;128853;-43
2023/05/06 00:46:22;;;;;;;;;;;;;;;22.45;53.09;99324.69;7316587;19;129432;-41
2023/05/06 00:48:47;;;;;;;;;;;;;;;22.44;52.31;99320.41;7316201;19;130731;-43
2023/05/06 00:51:12;;;;;;;;;;;;;;;22.47;52.22;99322.72;7317989;19;129589;-42
2023/05/06 00:53:38;;;;;;;;;;;;;;;22.50;52.46;99315.41;7318310;19;129079;-41
2023/05/06 00:56:04;;;;;;;;;;;;;;;22.51;52.79;99311.00;7316376;19;128945;-38
2023/05/06 00:58:30;;;;;;;;;;;;;;;22.47;52.64;99313.09;7318016;19;130445;-42
2023/05/06 01:00:55;;;;;;;;;;;;;;;22.23;50.89;99307.63;7316391;19;130388;-42
2023/05/06 01:03:23;;;;;;;;;;;;;;;21.69;49.96;99313.78;7313903;19;129262;-31
2023/05/06 01:05:58;;;;;;;;;;;;;;;21.66;50.48;99310.63;7312995;19;129720;-34
2023/05/06 01:08:32;;;;;;;;;;;;;;;22.07;52.29;99322.38;7315358;19;130369;-33
2023/05/06 01:11:04;;;;;;;;;;;;;;;22.20;52.79;99317.56;7315601;19;129240;-37
2023/05/06 01:13:45;;;;;;;;;;;;;;;22.19;52.40;99289.75;7314051;19;128928;-35
2023/05/06 01:16:12;;;;;;;;;;;;;;;22.18;52.32;99283.69;7314872;19;129851;-32
2023/05/06 01:18:37;;;;;;;;;;;;;;;22.21;52.74;99283.41;7316334;19;129057;-37
2023/05/06 01:21:03;;;;;;;;;;;;;;;22.38;52.73;99305.31;7313614;19;129107;-35
2023/05/06 01:23:48;;;;;;;;;;;;;;;22.39;52.85;99301.72;7312083;19;129084;-37
2023/05/06 01:26:13;;;;;;;;;;;;;;;22.41;53.03;99292.72;7315710;19;129405;-37
2023/05/06 01:28:38;;;;;;;;;;;;;;;22.37;52.73;99277.47;7316119;19;129027;-37
2023/05/06 01:31:07;;;;;;;;;;;;;;;22.47;52.42;99296.53;7313654;19;129187;-34
2023/05/06 01:33:38;;;;;;;;;;;;;;;22.47;52.35;99297.38;7312831;19;129189;-38
2023/05/06 01:36:09;;;;;;;;;;;;;;;22.46;52.67;99302.75;7313869;19;129621;-36
2023/05/06 01:38:42;;;;;;;;;;;;;;;22.49;52.67;99312.94;7316454;19;131379;-35
2023/05/06 01:41:10;;;;;;;;;;;;;;;22.53;52.76;99316.91;7314699;19;130240;-37
2023/05/06 01:43:40;;;;;;;;;;;;;;;22.51;53.03;99321.47;7312484;19;129065;-38
2023/05/06 01:46:07;;;;;;;;;;;;;;;22.17;49.84;99325.75;7311649;19;129215;-37
2023/05/06 01:48:34;;;;;;;;;;;;;;;21.70;49.11;99335.56;7314812;19;130183;-35
2023/05/06 01:51:00;;;;;;;;;;;;;;;21.86;49.86;99331.34;7315228;19;129203;-37
2023/05/06 01:53:25;;;;;;;;;;;;;;;22.13;51.93;99327.03;7313463;19;129600;-39
2023/05/06 01:55:50;;;;;;;;;;;;;;;22.23;52.33;99322.53;7312817;19;129422;-37
2023/05/06 01:58:16;;;;;;;;;;;;;;;22.21;52.63;99308.78;7314231;19;129361;-38
2023/05/06 02:00:41;;;;;;;;;;;;;;;22.36;52.34;99315.13;7312740;19;130474;-39
2023/05/06 02:03:06;;;;;;;;;;;;;;;22.38;52.10;99308.75;7312075;19;129203;-38
2023/05/06 02:05:31;;;;;;;;;;;;;;;22.41;52.92;99311.06;7311909;19;129163;-38
2023/05/06 02:07:56;;;;;;;;;;;;;;;22.47;52.54;99300.00;7314002;19;130937;-37
2023/05/06 02:10:22;;;;;;;;;;;;;;;22.48;52.84;99296.38;7315099;19;130461;-35
2023/05/06 02:12:47;;;;;;;;;;;;;;;22.46;52.87;99293.09;7312658;19;129388;-32
2023/05/06 02:15:12;;;;;;;;;;;;;;;22.49;53.00;99286.72;7314204;19;130528;-41
2023/05/06 02:17:38;;;;;;;;;;;;;;;22.51;52.68;99284.78;7312064;19;130245;-40
2023/05/06 02:20:03;;;;;;;;;;;;;;;22.53;52.76;99275.81;7314030;19;129567;-37
2023/05/06 02:22:28;;;;;;;;;;;;;;;22.52;53.13;99275.94;7313201;19;129641;-31
2023/05/06 02:24:54;;;;;;;;;;;;;;;22.53;52.38;99277.59;7311312;19;129199;-30
2023/05/06 02:27:19;;;;;;;;;;;;;;;22.44;52.90;99262.78;7314487;19;129826;-37
2023/05/06 02:29:45;;;;;;;;;;;;;;;22.32;50.40;99296.25;7313208;19;130378;-35
2023/05/06 02:32:10;;;;;;;;;;;;;;;21.75;49.66;99278.38;7312284;19;129540;-34
2023/05/06 02:34:35;;;;;;;;;;;;;;;21.66;49.04;99277.47;7311529;19;129556;-40
2023/05/06 02:37:00;;;;;;;;;;;;;;;21.98;52.30;99272.56;7313216;19;129175;-34
2023/05/06 02:39:25;;;;;;;;;;;;;;;22.22;52.84;99284.22;7312712;19;129947;-37
2023/05/06 02:41:51;;;;;;;;;;;;;;;22.31;53.08;99263.19;7313072;19;129580;-31
2023/05/06 02:44:16;;;;;;;;;;;;;;;22.37;52.95;99259.13;7314608;19;129017;-38
2023/05/06 02:46:42;;;;;;;;;;;;;;;22.43;52.85;99261.16;7312463;19;129136;-42
2023/05/06 02:49:07;;;;;;;;;;;;;;;22.44;52.97;99260.19;7313466;19;130636;-40
2023/05/06 02:51:33;;;;;;;;;;;;;;;22.37;52.30;99243.41;7314534;19;129383;-41
2023/05/06 02:53:58;;;;;;;;;;;;;;;22.48;52.54;99251.00;7313624;19;128943;-40
2023/05/06 02:56:23;;;;;;;;;;;;;;;22.48;52.55;99249.22;7312651;19;129137;-42
2023/05/06 02:58:48;;;;;;;;;;;;;;;22.50;53.18;99254.31;7313341;19;129892;-42
2023/05/06 03:01:13;;;;;;;;;;;;;;;22.51;53.17;99248.13;7313919;19;129085;-42
2023/05/06 03:03:39;;;;;;;;;;;;;;;22.42;52.45;99230.69;7314555;19;129203;-41
2023/05/06 03:06:04;;;;;;;;;;;;;;;22.53;52.74;99243.56;7310078;19;129530;-43
2023/05/06 03:08:30;;;;;;;;;;;;;;;22.50;53.04;99252.53;7313456;19;129945;-38
2023/05/06 03:10:55;;;;;;;;;;;;;;;22.51;52.63;99242.88;7313887;19;128637;-39
2023/05/06 03:13:20;;;;;;;;;;;;;;;22.00;49.79;99240.19;7310076;19;129786;-40
2023/05/06 03:15:49;;;;;;;;;;;;;;;21.77;49.07;99258.94;7312093;19;129339;-41
2023/05/06 03:18:15;;;;;;;;;;;;;;;21.82;50.38;99264.56;7310961;19;131210;-39
2023/05/06 03:20:40;;;;;;;;;;;;;;;22.13;52.39;99259.75;7312390;19;130177;-40
2023/05/06 03:23:05;;;;;;;;;;;;;;;22.23;52.32;99262.31;7311149;19;129531;-41
2023/05/06 03:25:30;;;;;;;;;;;;;;;22.30;52.87;99261.53;7310795;19;129525;-40
2023/05/06 03:27:55;;;;;;;;;;;;;;;22.37;52.58;99254.72;7313104;19;128961;-41
2023/05/06 03:30:21;;;;;;;;;;;;;;;22.40;53.04;99261.44;7313829;19;128898;-40
2023/05/06 03:32:46;;;;;;;;;;;;;;;22.41;52.61;99256.03;7311539;19;129185;-40
2023/05/06 03:35:12;;;;;;;;;;;;;;;22.45;52.78;99253.94;7307783;19;129467;-38
2023/05/06 03:37:37;;;;;;;;;;;;;;;22.47;52.56;99258.06;7308450;19;131302;-41
2023/05/06 03:40:03;;;;;;;;;;;;;;;22.40;53.01;99241.31;7312850;19;129368;-42
2023/05/06 03:42:28;;;;;;;;;;;;;;;22.41;52.59;99231.66;7308123;19;129387;-42
2023/05/06 03:44:54;;;;;;;;;;;;;;;22.53;53.01;99259.28;7312203;19;130285;-41
2023/05/06 03:47:19;;;;;;;;;;;;;;;22.55;53.07;99260.78;7318794;19;129157;-41
2023/05/06 03:49:44;;;;;;;;;;;;;;;22.55;52.87;99254.69;7320069;19;128960;-41
2023/05/06 03:52:10;;;;;;;;;;;;;;;22.56;52.45;99259.00;7315927;19;129337;-42
2023/05/06 03:54:35;;;;;;;;;;;;;;;22.55;52.75;99254.69;7315902;19;130300;-42
2023/05/06 03:57:01;;;;;;;;;;;;;;;22.41;51.34;99257.88;7317080;19;129315;-40
2023/05/06 03:59:26;;;;;;;;;;;;;;;21.80;49.38;99263.88;7317832;19;129579;-38
2023/05/06 04:01:51;;;;;;;;;;;;;;;21.68;49.00;99264.22;7316387;19;129694;-41
2023/05/06 04:04:17;;;;;;;;;;;;;;;22.06;52.29;99257.91;7317077;19;129130;-38
2023/05/06 04:06:42;;;;;;;;;;;;;;;22.23;52.42;99255.25;7316361;19;128808;-43
2023/05/06 04:09:07;;;;;;;;;;;;;;;22.35;52.27;99258.47;7316113;19;128870;-41
2023/05/06 04:11:34;;;;;;;;;;;;;;;22.38;52.61;99253.75;7316088;19;128648;-42
2023/05/06 04:13:59;;;;;;;;;;;;;;;22.44;52.86;99268.88;7318472;19;129502;-38
2023/05/06 04:16:25;;;;;;;;;;;;;;;22.46;52.36;99260.84;7316191;19;130455;-40
2023/05/06 04:18:50;;;;;;;;;;;;;;;22.49;52.83;99260.53;7316877;19;129287;-42
2023/05/06 04:21:17;;;;;;;;;;;;;;;22.51;52.93;99262.00;7315382;19;129357;-37
2023/05/06 04:23:43;;;;;;;;;;;;;;;22.53;52.97;99267.97;7319269;19;129464;-40
2023/05/06 04:26:08;;;;;;;;;;;;;;;22.54;52.66;99271.41;7315468;19;130448;-41
2023/05/06 04:28:33;;;;;;;;;;;;;;;22.55;52.68;99273.03;7318473;19;129278;-40
2023/05/06 04:31:01;;;;;;;;;;;;;;;22.54;52.42;99279.28;7318381;19;129115;-42
2023/05/06 04:33:26;;;;;;;;;;;;;;;22.54;52.98;99276.66;7315999;19;130435;-40
2023/05/06 04:35:52;;;;;;;;;;;;;;;22.55;52.61;99280.91;7313928;19;129476;-40
2023/05/06 04:38:18;;;;;;;;;;;;;;;22.54;53.33;99277.50;7319050;19;128990;-39
2023/05/06 04:40:43;;;;;;;;;;;;;;;22.56;52.95;99277.31;7316632;19;129220;-38
2023/05/06 04:43:09;;;;;;;;;;;;;;;22.00;49.45;99289.94;7312723;19;129127;-40
2023/05/06 04:45:36;;;;;;;;;;;;;;;21.77;49.17;99287.75;7311050;19;130674;-40
2023/05/06 04:48:01;;;;;;;;;;;;;;;21.97;52.29;99296.28;7317122;19;129231;-42
2023/05/06 04:50:27;;;;;;;;;;;;;;;22.16;52.21;99292.69;7314459;19;129312;-37
2023/05/06 04:52:52;;;;;;;;;;;;;;;22.26;53.05;99296.88;7315899;19;130065;-42
2023/05/06 04:55:17;;;;;;;;;;;;;;;22.36;52.98;99302.03;7316671;19;130353;-42
2023/05/06 04:57:42;;;;;;;;;;;;;;;22.43;52.58;99287.34;7313429;19;128891;-41
2023/05/06 05:00:09;;;;;;;;;;;;;;;22.46;52.95;99298.31;7313725;19;129205;-41
2023/05/06 05:02:34;;;;;;;;;;;;;;;22.51;52.28;99300.50;7314278;19;129047;-42
2023/05/06 05:04:59;;;;;;;;;;;;;;;22.53;52.32;99295.94;7310323;19;130315;-39
2023/05/06 05:07:24;;;;;;;;;;;;;;;22.53;52.52;99290.72;7314749;19;129386;-42
2023/05/06 05:09:50;;;;;;;;;;;;;;;22.42;52.48;99269.97;7315460;19;129624;-42
2023/05/06 05:12:15;;;;;;;;;;;;;;;22.56;52.70;99299.09;7313627;19;131330;-39
2023/05/06 05:14:41;;;;;;;;;;;;;;;22.56;52.86;99298.28;7316513;19;129222;-41
2023/05/06 05:17:06;;;;;;;;;;;;;;;22.56;52.91;99303.53;7312048;19;129270;-39
2023/05/06 05:19:32;;;;;;;;;;;;;;;22.56;52.80;99304.31;7315921;19;130115;-42
2023/05/06 05:21:57;;;;;;;;;;;;;;;22.56;52.98;99293.03;7313001;19;129645;-40
2023/05/06 05:24:22;;;;;;;;;;;;;;;22.58;53.24;99305.00;7315864;19;129676;-41
2023/05/06 05:26:47;;;;;;;;;;;;;;;21.92;49.66;99309.81;7306693;19;129780;-41
2023/05/06 05:29:13;;;;;;;;;;;;;;;21.78;49.51;99307.69;7313412;19;128890;-39
2023/05/06 05:31:38;;;;;;;;;;;;;;;22.05;52.00;99308.63;7310221;19;129130;-39
2023/05/06 05:34:04;;;;;;;;;;;;;;;22.23;52.32;99312.06;7307721;19;130048;-42
2023/05/06 05:36:29;;;;;;;;;;;;;;;22.32;53.21;99317.22;7307733;19;130519;-42
2023/05/06 05:38:54;;;;;;;;;;;;;;;22.40;52.51;99319.06;7309971;19;129015;-39
2023/05/06 05:41:19;;;;;;;;;;;;;;;22.47;52.51;99322.72;7312119;19;130571;-36
2023/05/06 05:43:44;;;;;;;;;;;;;;;22.49;52.39;99315.56;7308060;19;130212;-39
2023/05/06 05:46:10;;;;;;;;;;;;;;;22.52;52.47;99320.47;7310261;19;129120;-39
2023/05/06 05:48:36;;;;;;;;;;;;;;;22.54;52.67;99315.94;7313214;19;129340;-39
2023/05/06 05:51:02;;;;;;;;;;;;;;;22.56;53.07;99314.00;7310820;19;130765;-37
2023/05/06 05:53:27;;;;;;;;;;;;;;;22.57;52.90;99315.63;7311215;19;129337;-39
2023/05/06 05:55:52;;;;;;;;;;;;;;;22.57;52.77;99320.88;7312373;19;128802;-37
2023/05/06 05:58:18;;;;;;;;;;;;;;;22.57;53.13;99315.63;7315648;19;129529;-39
2023/05/06 06:00:43;;;;;;;;;;;;;;;22.58;53.17;99318.09;7313504;19;130304;-40
2023/05/06 06:03:08;;;;;;;;;;;;;;;22.58;53.31;99320.72;7311350;19;130378;-38
2023/05/06 06:05:33;;;;;;;;;;;;;;;22.57;53.18;99323.50;7310072;19;129214;-37
2023/05/06 06:07:59;;;;;;;;;;;;;;;22.57;53.09;99320.88;7314927;19;128825;-40
2023/05/06 06:10:24;;;;;;;;;;;;;;;21.98;49.71;99328.50;7313104;19;130092;-35
2023/05/06 06:12:49;;;;;;;;;;;;;;;21.66;49.64;99327.16;7310680;19;131028;-40
2023/05/06 06:15:15;;;;;;;;;;;;;;;21.88;51.88;99326.78;7311918;19;129290;-40
2023/05/06 06:17:40;;;;;;;;;;;;;;;22.15;52.34;99331.13;7310586;19;129190;-38
2023/05/06 06:20:06;;;;;;;;;;;;;;;22.30;53.04;99336.66;7312324;19;130067;-39
2023/05/06 06:22:31;;;;;;;;;;;;;;;22.40;53.20;99334.78;7307931;19;130332;-38
2023/05/06 06:24:56;;;;;;;;;;;;;;;22.46;52.71;99344.69;7309984;19;128810;-38
2023/05/06 06:27:22;;;;;;;;;;;;;;;22.49;52.71;99339.13;7308495;19;128568;-39
2023/05/06 06:29:50;;;;;;;;;;;;;;;22.52;53.24;99344.06;7308752;19;131326;-39
2023/05/06 06:32:15;;;;;;;;;;;;;;;22.53;52.93;99340.50;7311624;19;130460;-38
2023/05/06 06:34:40;;;;;;;;;;;;;;;22.56;52.55;99345.44;7313528;19;129545;-40
2023/05/06 06:37:05;;;;;;;;;;;;;;;22.54;52.75;99350.00;7312424;19;128924;-38
2023/05/06 06:39:31;;;;;;;;;;;;;;;22.56;53.08;99355.94;7312107;19;130298;-39
2023/05/06 06:41:59;;;;;;;;;;;;;;;22.54;52.84;99348.22;7308006;19;129849;-34
2023/05/06 06:44:24;;;;;;;;;;;;;;;22.58;53.11;99351.34;7312848;19;129161;-35
2023/05/06 06:46:49;;;;;;;;;;;;;;;22.54;53.36;99342.97;7310288;19;129578;-37
2023/05/06 06:49:15;;;;;;;;;;;;;;;22.56;53.08;99351.50;7312983;19;130270;-41
2023/05/06 06:51:40;;;;;;;;;;;;;;;22.57;53.09;99355.78;7312723;19;129158;-36
2023/05/06 06:54:05;;;;;;;;;;;;;;;22.43;51.58;99355.47;7313338;19;128878;-40
2023/05/06 06:56:30;;;;;;;;;;;;;;;21.69;50.28;99354.81;7311179;19;128985;-38
2023/05/06 06:58:56;;;;;;;;;;;;;;;21.71;49.92;99356.34;7306127;19;129497;-39
2023/05/06 07:01:21;;;;;;;;;;;;;;;22.08;52.85;99358.88;7312741;19;130338;-37
2023/05/06 07:03:46;;;;;;;;;;;;;;;22.27;52.62;99355.28;7312077;19;129478;-37
2023/05/06 07:06:11;;;;;;;;;;;;;;;22.37;52.78;99363.91;7309374;19;129536;-38
2023/05/06 07:08:37;;;;;;;;;;;;;;;22.43;52.92;99365.94;7310365;19;130765;-40
2023/05/06 07:11:02;;;;;;;;;;;;;;;22.48;52.98;99372.34;7311307;19;129333;-36
2023/05/06 07:13:27;;;;;;;;;;;;;;;22.49;52.56;99365.31;7309135;19;128950;-29
2023/05/06 07:15:52;;;;;;;;;;;;;;;22.40;52.60;99350.50;7310374;19;129114;-33
2023/05/06 07:18:18;;;;;;;;;;;;;;;22.56;52.57;99380.31;7312101;19;130299;-30
2023/05/06 07:20:43;;;;;;;;;;;;;;;22.58;52.88;99377.53;7316827;19;129289;-38
2023/05/06 07:23:09;;;;;;;;;;;;;;;22.60;52.44;99372.97;7315204;19;129310;-42
2023/05/06 07:25:34;;;;;;;;;;;;;;;22.57;53.22;99370.66;7317326;19;129624;-34
2023/05/06 07:27:59;;;;;;;;;;;;;;;22.60;52.76;99378.22;7317684;19;130049;-42
2023/05/06 07:30:25;;;;;;;;;;;;;;;22.62;52.63;99381.50;7318378;19;129253;-42
2023/05/06 07:32:50;;;;;;;;;;;;;;;22.60;52.91;99379.06;7316120;19;130517;-39
2023/05/06 07:35:15;;;;;;;;;;;;;;;22.57;53.28;99378.53;7316822;19;129107;-36
2023/05/06 07:37:41;;;;;;;;;;;;;;;22.61;53.09;99379.88;7317579;19;129774;-31
2023/05/06 07:40:06;;;;;;;;;;;;;;;21.86;49.46;99381.06;7316154;19;130354;-34
2023/05/06 07:42:31;;;;;;;;;;;;;;;21.80;49.36;99384.25;7316352;19;129171;-35
2023/05/06 07:44:56;;;;;;;;;;;;;;;22.05;52.23;99389.78;7317198;19;129457;-34
2023/05/06 07:47:29;;;;;;;;;;;;;;;22.24;52.44;99390.47;7317561;19;129503;-32
2023/05/06 07:49:54;;;;;;;;;;;;;;;22.36;52.59;99397.13;7319490;19;130281;-34
2023/05/06 07:52:20;;;;;;;;;;;;;;;22.41;53.02;99401.94;7316655;19;128942;-35
2023/05/06 07:54:45;;;;;;;;;;;;;;;22.47;52.89;99403.94;7316517;19;129233;-42
2023/05/06 07:57:10;;;;;;;;;;;;;;;22.41;52.57;99378.34;7317418;19;130180;-38
2023/05/06 07:59:36;;;;;;;;;;;;;;;22.52;52.88;99404.31;7317577;19;129272;-33
2023/05/06 08:02:01;;;;;;;;;;;;;;;22.53;53.27;99408.59;7311316;19;130405;-36
2023/05/06 08:04:26;;;;;;;;;;;;;;;22.51;52.71;99402.69;7316929;19;128921;-34
2023/05/06 08:06:52;;;;;;;;;;;;;;;22.46;52.70;99391.84;7312494;19;131169;-32
2023/05/06 08:09:18;;;;;;;;;;;;;;;22.53;52.79;99403.38;7316523;19;130779;-37
2023/05/06 08:11:43;;;;;;;;;;;;;;;22.58;53.15;99414.22;7316579;19;129366;-38
2023/05/06 08:14:08;;;;;;;;;;;;;;;22.60;52.88;99420.13;7315371;19;131971;-37
2023/05/06 08:16:34;;;;;;;;;;;;;;;22.51;53.11;99405.31;7314531;19;130237;-37
2023/05/06 08:18:59;;;;;;;;;;;;;;;22.59;53.37;99414.06;7317126;19;130956;-38
2023/05/06 08:21:25;;;;;;;;;;;;;;;22.53;53.39;99404.19;7314360;19;128904;-35
2023/05/06 08:23:50;;;;;;;;;;;;;;;22.07;49.41;99427.91;7315627;19;128888;-33
2023/05/06 08:26:15;;;;;;;;;;;;;;;21.77;49.90;99422.97;7313969;19;131100;-35
2023/05/06 08:28:40;;;;;;;;;;;;;;;21.89;51.13;99427.91;7316320;19;131339;-38
2023/05/06 08:31:06;;;;;;;;;;;;;;;22.18;52.96;99434.75;7313236;19;130133;-31
2023/05/06 08:33:31;;;;;;;;;;;;;;;22.33;53.21;99439.34;7313771;19;130207;-39
2023/05/06 08:35:57;;;;;;;;;;;;;;;22.39;53.04;99446.63;7310498;19;130410;-32
2023/05/06 08:38:23;;;;;;;;;;;;;;;22.44;52.84;99451.41;7315667;19;130438;-31
2023/05/06 08:40:50;;;;;;;;;;;;;;;22.49;53.32;99451.78;7315522;19;129697;-31
2023/05/06 08:43:18;;;;;;;;;;;;;;;22.54;53.18;99457.44;7313179;19;130430;-36
2023/05/06 08:45:44;;;;;;;;;;;;;;;22.52;52.47;99454.09;7314089;19;130073;-37
2023/05/06 08:48:09;;;;;;;;;;;;;;;22.56;52.62;99456.28;7315922;19;129207;-34
2023/05/06 08:50:37;;;;;;;;;;;;;;;22.55;53.07;99454.66;7315746;19;129622;-31
2023/05/06 08:53:02;;;;;;;;;;;;;;;22.57;53.05;99462.38;7313472;19;129485;-35
2023/05/06 08:55:29;;;;;;;;;;;;;;;22.59;53.09;99465.66;7315867;19;129227;-33
2023/05/06 08:57:55;;;;;;;;;;;;;;;22.59;53.25;99466.47;7314280;19;129205;-37
2023/05/06 09:00:20;;;;;;;;;;;;;;;22.60;52.77;99467.31;7316162;19;129054;-37
2023/05/06 09:02:45;;;;;;;;;;;;;;;22.61;52.93;99463.72;7313896;19;129027;-35
2023/05/06 09:05:11;;;;;;;;;;;;;;;22.61;52.84;99463.72;7316167;19;129790;-36
2023/05/06 09:07:36;;;;;;;;;;;;;;;21.96;49.86;99465.56;7307103;19;131335;-39
2023/05/06 09:10:05;;;;;;;;;;;;;;;21.68;50.05;99474.34;7315000;19;129432;-31
2023/05/06 09:12:30;;;;;;;;;;;;;;;21.90;52.54;99467.94;7312555;19;128953;-39
2023/05/06 09:14:56;;;;;;;;;;;;;;;22.19;52.97;99473.88;7312822;19;132979;-39
2023/05/06 09:17:25;;;;;;;;;;;;;;;22.33;52.57;99480.44;7312115;19;130356;-31
2023/05/06 09:19:55;;;;;;;;;;;;;;;22.41;52.88;99475.28;7315930;19;129179;-36
2023/05/06 09:22:21;;;;;;;;;;;;;;;22.44;52.62;99485.47;7312625;19;129058;-40
2023/05/06 09:24:55;;;;;;;;;;;;;;;22.49;52.61;99484.06;7315862;19;128967;-32
2023/05/06 09:27:20;;;;;;;;;;;;;;;22.51;52.70;99491.75;7310537;19;129513;-28
2023/05/06 09:30:06;;;;;;;;;;;;;;;22.54;52.88;99484.47;7314319;19;128944;-33
2023/05/06 09:32:32;;;;;;;;;;;;;;;22.55;52.65;99480.03;7313251;19;129672;-35
2023/05/06 09:34:57;;;;;;;;;;;;;;;22.58;52.71;99484.97;7315177;19;130145;-32
2023/05/06 09:37:25;;;;;;;;;;;;;;;22.59;52.74;99481.38;7310775;19;130342;-36
2023/05/06 09:39:52;;;;;;;;;;;;;;;22.49;53.13;99465.72;7309866;19;129751;-34
2023/05/06 09:42:17;;;;;;;;;;;;;;;22.62;53.64;99486.34;7310703;19;130928;-31
2023/05/06 09:44:42;;;;;;;;;;;;;;;22.63;52.74;99482.72;7312951;19;129482;-39
2023/05/06 09:47:08;;;;;;;;;;;;;;;22.62;53.24;99487.16;7308390;19;130338;-36
2023/05/06 09:49:33;;;;;;;;;;;;;;;22.65;52.71;99486.03;7314342;19;128726;-30
2023/05/06 09:51:59;;;;;;;;;;;;;;;22.00;50.28;99484.44;7309395;19;129483;-34
2023/05/06 09:54:25;;;;;;;;;;;;;;;21.73;49.98;99487.81;7314931;19;129653;-36
2023/05/06 09:56:51;;;;;;;;;;;;;;;21.79;49.84;99491.69;7314148;19;130415;-36
2023/05/06 09:59:17;;;;;;;;;;;;;;;22.16;53.08;99491.69;7313407;19;129453;-32
2023/05/06 10:01:42;;;;;;;;;;;;;;;22.32;53.18;99492.69;7314776;19;129520;-37
2023/05/06 10:04:09;;;;;;;;;;;;;;;22.41;52.95;99498.84;7315142;19;130561;-38
2023/05/06 10:06:35;;;;;;;;;;;;;;;22.45;53.03;99481.84;7311373;19;130375;-43
2023/05/06 10:09:01;;;;;;;;;;;;;;;22.46;52.70;99497.41;7310505;19;129793;-39
2023/05/06 10:11:28;;;;;;;;;;;;;;;22.53;52.81;99500.31;7312450;19;130981;-35
2023/05/06 10:13:53;;;;;;;;;;;;;;;22.57;52.62;99497.25;7305166;19;129500;-36
2023/05/06 10:16:19;;;;;;;;;;;;;;;22.43;53.24;99476.75;7312215;19;131370;-31
2023/05/06 10:18:45;;;;;;;;;;;;;;;22.58;52.56;99492.81;7313752;19;129165;-33
2023/05/06 10:21:16;;;;;;;;;;;;;;;22.59;53.19;99492.69;7313157;19;130207;-32
2023/05/06 10:23:41;;;;;;;;;;;;;;;22.58;52.71;99490.19;7310951;19;130227;-38
2023/05/06 10:26:08;;;;;;;;;;;;;;;22.61;53.14;99500.41;7311170;19;129944;-28
2023/05/06 10:28:38;;;;;;;;;;;;;;;22.62;52.76;99491.56;7313020;19;129649;-30
2023/05/06 10:31:06;;;;;;;;;;;;;;;22.64;53.11;99492.25;7313080;19;129838;-33
2023/05/06 10:33:31;;;;;;;;;;;;;;;22.63;52.87;99499.28;7308983;19;129285;-35
2023/05/06 10:36:17;;;;;;;;;;;;;;;22.23;50.74;99495.38;7312536;19;129354;-31
2023/05/06 10:38:43;;;;;;;;;;;;;;;21.73;49.82;99498.28;7310520;19;129782;-33
2023/05/06 10:41:09;;;;;;;;;;;;;;;21.69;49.51;99502.19;7311969;19;129417;-32
2023/05/06 10:43:37;;;;;;;;;;;;;;;22.12;52.36;99498.16;7308049;19;129622;-40
2023/05/06 10:46:05;;;;;;;;;;;;;;;22.30;52.61;99499.88;7310641;19;129682;-36
2023/05/06 10:48:31;;;;;;;;;;;;;;;22.41;53.42;99504.09;7310692;19;129791;-38
2023/05/06 10:51:14;;;;;;;;;;;;;;;22.45;52.74;99500.19;7312285;19;129353;-33
2023/05/06 10:53:55;;;;;;;;;;;;;;;22.49;52.78;99501.56;7308345;19;129967;-33
2023/05/06 10:56:20;;;;;;;;;;;;;;;22.54;53.13;99504.59;7317971;19;130038;-33
2023/05/06 10:58:49;;;;;;;;;;;;;;;22.56;52.80;99500.84;7316976;19;129091;-35
2023/05/06 11:01:14;;;;;;;;;;;;;;;22.58;52.73;99503.31;7319357;19;130036;-32
2023/05/06 11:03:43;;;;;;;;;;;;;;;22.57;52.59;99493.81;7316805;19;130122;-32
2023/05/06 11:06:08;;;;;;;;;;;;;;;22.63;53.18;99503.69;7315481;19;129706;-38
2023/05/06 11:08:34;;;;;;;;;;;;;;;22.57;53.38;99499.06;7317259;19;130440;-35
2023/05/06 11:10:59;;;;;;;;;;;;;;;22.63;53.18;99501.06;7318991;19;128884;-40
2023/05/06 11:13:28;;;;;;;;;;;;;;;22.60;53.53;99506.59;7314072;19;129527;-32
2023/05/06 11:15:54;;;;;;;;;;;;;;;22.55;53.29;99495.75;7316040;19;129571;-34
2023/05/06 11:18:30;;;;;;;;;;;;;;;22.61;53.15;99510.91;7317970;19;128853;-38
2023/05/06 11:20:58;;;;;;;;;;;;;;;22.04;50.61;99521.63;7317276;19;129042;-37
2023/05/06 11:23:45;;;;;;;;;;;;;;;21.66;50.30;99518.16;7316448;19;130538;-32
2023/05/06 11:26:11;;;;;;;;;;;;;;;21.89;52.15;99524.72;7316509;19;130524;-33
2023/05/06 11:28:37;;;;;;;;;;;;;;;22.17;52.69;99528.19;7317431;19;129111;-32
2023/05/06 11:31:02;;;;;;;;;;;;;;;22.29;52.80;99524.44;7317843;19;129530;-33
2023/05/06 11:33:30;;;;;;;;;;;;;;;22.40;52.96;99533.84;7315774;19;130150;-42
2023/05/06 11:35:56;;;;;;;;;;;;;;;22.47;52.77;99534.94;7313489;19;131682;-42
2023/05/06 11:38:21;;;;;;;;;;;;;;;22.52;53.26;99527.47;7305637;19;129601;-36
2023/05/06 11:40:47;;;;;;;;;;;;;;;22.50;53.08;99526.78;7289598;19;131923;-42
2023/05/06 11:43:13;;;;;;;;;;;;;;;22.56;52.70;99536.72;7308970;19;131311;-39
2023/05/06 11:45:47;;;;;;;;;;;;;;;22.48;53.06;99523.47;7311419;19;130319;-38
2023/05/06 11:48:13;;;;;;;;;;;;;;;22.60;53.20;99541.50;7316684;19;129370;-33
2023/05/06 11:50:43;;;;;;;;;;;;;;;22.61;52.88;99544.97;7314675;19;130242;-36
2023/05/06 11:53:08;;;;;;;;;;;;;;;22.53;53.24;99521.25;7314404;19;129606;-33
2023/05/06 11:55:34;;;;;;;;;;;;;;;22.62;53.00;99551.84;7312975;19;129156;-32
2023/05/06 11:57:59;;;;;;;;;;;;;;;22.64;52.89;99555.16;7316938;19;129119;-34
2023/05/06 12:00:24;;;;;;;;;;;;;;;22.63;52.98;99558.72;7314472;19;130370;-31
2023/05/06 12:02:53;;;;;;;;;;;;;;;22.64;53.34;99552.53;7312667;19;130910;-33
2023/05/06 12:05:21;;;;;;;;;;;;;;;21.93;50.02;99561.91;7311270;19;129557;-45
2023/05/06 12:07:46;;;;;;;;;;;;;;;21.70;49.37;99561.38;7314112;19;129304;-34
2023/05/06 12:10:12;;;;;;;;;;;;;;;21.89;52.00;99555.31;7314197;19;129966;-33
2023/05/06 12:12:38;;;;;;;;;;;;;;;22.17;52.65;99551.75;7309319;19;130260;-36
2023/05/06 12:15:03;;;;;;;;;;;;;;;22.28;52.73;99562.03;7317159;19;130412;-34
2023/05/06 12:17:28;;;;;;;;;;;;;;;22.39;53.00;99559.25;7311583;19;129749;-29
2023/05/06 12:19:54;;;;;;;;;;;;;;;22.44;52.72;99567.50;7316250;19;129020;-39
2023/05/06 12:22:20;;;;;;;;;;;;;;;22.51;53.36;99559.88;7312562;19;132195;-34
2023/05/06 12:24:46;;;;;;;;;;;;;;;22.53;53.08;99568.44;7313329;19;130271;-40
2023/05/06 12:27:11;;;;;;;;;;;;;;;22.56;52.58;99570.78;7310499;19;130896;-31
2023/05/06 12:29:37;;;;;;;;;;;;;;;22.57;52.96;99572.41;7316765;19;129462;-33